Dades meteomassalio
Diari Summary for Febrer 12, 2017 Units:  English    Metric   Both
« Previous Day
Next Day »
Diari Semanal Mensual Anual Personalitzat
  Maxima: Minima: Mijana:
Temperatura: TemperatureC °F 9.8 °F 12 °F
Rosada: DewpointC °F 7.4 °F 8.2 °F
Humitat: Humidity % 65 % 78 %
Velocitat del vent: WindSpeedKMH mph 0.0 mph 21.5 mph
Racha vent: WindSpeedGustKMH mph - -
Vent:- - ESE
Pressio: PressurehPa in 1008.0 in -
Pluja: 0.0 in    
Historical Graphs
 
 
Tabular Data for Febrer 12, 2017
Time Temperature Dew Point Pressure Wind Wind Speed Wind Gust Humidity Rainfall Rate (Hourly) solar Conditions
TemperatureC °F DewpointC °F PressurehPa in Calm     Humidity % HourlyPrecipMM in SolarRadiationWatts/m^2 W/m2 Conditions
00:01 9.8 °F 8.3 °F 1011.7 in East 13.0 mph 13.0 mph 90 % 0.0 in 0.0 W/m2 RA
00:06 9.9 °F 8.4 °F 1011.7 in East 13.0 mph 13.0 mph 90 % 0.0 in 0.0 W/m2 CLR
00:11 10.1 °F 8.5 °F 1011.7 in East 7.4 mph 7.4 mph 90 % 0.0 in 0.0 W/m2 CLR
00:16 10.1 °F 8.5 °F 1011.7 in ESE 13.0 mph 13.0 mph 90 % 0.0 in 0.0 W/m2 CLR
00:21 10.2 °F 8.4 °F 1011.7 in East 13.0 mph 13.0 mph 89 % 0.0 in 0.0 W/m2 CLR
00:26 10.1 °F 8.4 °F 1011.7 in East 7.4 mph 7.4 mph 89 % 0.0 in 0.0 W/m2 CLR
00:31 10.1 °F 8.4 °F 1011.7 in Calm     89 % 0.0 in 0.0 W/m2 CLR
00:36 10.1 °F 8.3 °F 1011.7 in East 5.6 mph 5.6 mph 89 % 0.0 in 0.0 W/m2 CLR
00:41 10.1 °F 8.4 °F 1011.7 in East 7.4 mph 7.4 mph 89 % 0.0 in 0.0 W/m2 CLR
00:46 10.1 °F 8.3 °F 1011.7 in East 5.6 mph 5.6 mph 89 % 0.0 in 0.0 W/m2 CLR
00:51 10.0 °F 8.4 °F 1011.4 in East 14.8 mph 14.8 mph 90 % 0.0 in 0.0 W/m2 CLR
00:56 10.1 °F 8.3 °F 1011.4 in East 14.8 mph 14.8 mph 89 % 0.0 in 0.0 W/m2 CLR
01:01 10.2 °F 8.4 °F 1011.4 in East 14.8 mph 14.8 mph 89 % 0.0 in 0.0 W/m2 CLR
01:06 10.2 °F 8.4 °F 1011.4 in East 14.8 mph 14.8 mph 89 % 0.0 in 0.0 W/m2 CLR
01:12 10.2 °F 8.4 °F 1011.4 in East 13.0 mph 13.0 mph 89 % 0.0 in 0.0 W/m2 CLR
01:17 10.3 °F 8.6 °F 1011.4 in ESE 18.5 mph 18.5 mph 89 % 0.0 in 0.0 W/m2 CLR
01:22 10.3 °F 8.6 °F 1011.4 in ESE 18.5 mph 18.5 mph 89 % 0.0 in 0.0 W/m2 CLR
01:27 10.3 °F 8.6 °F 1011.4 in ESE 14.8 mph 14.8 mph 89 % 0.0 in 0.0 W/m2 CLR
01:32 10.3 °F 8.6 °F 1011.1 in ESE 20.4 mph 20.4 mph 89 % 0.0 in 0.0 W/m2 CLR
01:37 10.4 °F 8.5 °F 1011.1 in ESE 22.2 mph 22.2 mph 88 % 0.0 in 0.0 W/m2 CLR
01:42 10.6 °F 8.7 °F 1011.1 in ESE 19.3 mph 19.3 mph 88 % 0.0 in 0.0 W/m2 CLR
01:47 10.6 °F 8.6 °F 1011.1 in ESE 14.8 mph 14.8 mph 87 % 0.0 in 0.0 W/m2 CLR
01:52 10.7 °F 8.6 °F 1011.1 in ESE 18.5 mph 18.5 mph 87 % 0.0 in 0.0 W/m2 CLR
01:57 10.6 °F 8.6 °F 1011.1 in ESE 13.0 mph 13.0 mph 87 % 0.0 in 0.0 W/m2 CLR
02:02 10.6 °F 8.6 °F 1011.1 in ESE 18.5 mph 18.5 mph 87 % 0.0 in 0.0 W/m2 CLR
02:07 10.7 °F 8.6 °F 1011.1 in ESE 18.5 mph 18.5 mph 87 % 0.0 in 0.0 W/m2 CLR
02:12 10.6 °F 8.6 °F 1011.1 in East 17.7 mph 17.7 mph 87 % 0.0 in 0.0 W/m2 CLR
02:17 10.6 °F 8.6 °F 1010.7 in ESE 24.1 mph 24.1 mph 87 % 0.0 in 0.0 W/m2 CLR
02:22 10.6 °F 8.6 °F 1011.1 in ESE 18.5 mph 18.5 mph 87 % 0.0 in 0.0 W/m2 CLR
02:27 10.6 °F 8.6 °F 1011.1 in ESE 13.0 mph 13.0 mph 87 % 0.0 in 0.0 W/m2 CLR
02:32 10.7 °F 8.6 °F 1010.7 in ESE 18.5 mph 18.5 mph 87 % 0.0 in 0.0 W/m2 CLR
02:37 10.7 °F 8.6 °F 1010.7 in ESE 14.8 mph 14.8 mph 87 % 0.0 in 0.0 W/m2 CLR
02:42 10.7 °F 8.7 °F 1010.7 in ESE 22.2 mph 22.2 mph 87 % 0.0 in 0.0 W/m2 CLR
02:47 10.7 °F 8.6 °F 1010.7 in ESE 18.5 mph 18.5 mph 87 % 0.0 in 0.0 W/m2 CLR
02:52 10.7 °F 8.6 °F 1010.4 in ESE 18.5 mph 18.5 mph 87 % 0.0 in 0.0 W/m2 CLR
02:57 10.7 °F 8.6 °F 1010.7 in ESE 18.5 mph 18.5 mph 87 % 0.0 in 0.0 W/m2 CLR
03:02 10.7 °F 8.7 °F 1010.7 in ESE 25.9 mph 25.9 mph 87 % 0.0 in 0.0 W/m2 CLR
03:07 10.8 °F 8.6 °F 1010.7 in ESE 18.5 mph 18.5 mph 86 % 0.0 in 0.0 W/m2 CLR
03:12 10.8 °F 8.6 °F 1010.7 in ESE 27.8 mph 27.8 mph 86 % 0.0 in 0.0 W/m2 CLR
03:17 10.8 °F 8.6 °F 1010.7 in ESE 18.5 mph 18.5 mph 86 % 0.0 in 0.0 W/m2 CLR
03:22 10.8 °F 8.6 °F 1010.7 in ESE 18.5 mph 18.5 mph 86 % 0.0 in 0.0 W/m2 CLR
03:27 10.8 °F 8.6 °F 1010.4 in ESE 14.8 mph 14.8 mph 86 % 0.0 in 0.0 W/m2 CLR
03:32 10.7 °F 8.7 °F 1010.4 in ESE 20.9 mph 20.9 mph 87 % 0.0 in 0.0 W/m2 CLR
03:37 10.7 °F 8.5 °F 1010.4 in ESE 18.5 mph 18.5 mph 86 % 0.0 in 0.0 W/m2 CLR
03:42 10.7 °F 8.6 °F 1010.4 in ESE 18.5 mph 18.5 mph 87 % 0.0 in 0.0 W/m2 CLR
03:47 10.6 °F 8.6 °F 1010.4 in ESE 18.5 mph 18.5 mph 87 % 0.0 in 0.0 W/m2 CLR
03:52 10.6 °F 8.6 °F 1010.0 in ESE 18.5 mph 18.5 mph 87 % 0.0 in 0.0 W/m2 CLR
03:57 10.7 °F 8.4 °F 1010.0 in ESE 16.7 mph 16.7 mph 86 % 0.0 in 0.0 W/m2 CLR
04:02 10.6 °F 8.6 °F 1010.0 in ESE 22.2 mph 22.2 mph 87 % 0.0 in 0.0 W/m2 CLR
04:07 10.7 °F 8.5 °F 1010.0 in ESE 18.5 mph 18.5 mph 86 % 0.0 in 0.0 W/m2 CLR
04:12 10.7 °F 8.4 °F 1010.0 in ESE 20.9 mph 20.9 mph 86 % 0.0 in 0.0 W/m2 CLR
04:17 10.7 °F 8.5 °F 1009.7 in ESE 18.5 mph 18.5 mph 86 % 0.0 in 0.0 W/m2 CLR
04:22 10.7 °F 8.3 °F 1009.7 in ESE 29.0 mph 29.0 mph 85 % 0.0 in 0.0 W/m2 CLR
04:27 10.8 °F 8.4 °F 1010.0 in ESE 24.1 mph 24.1 mph 85 % 0.0 in 0.0 W/m2 CLR
04:32 10.8 °F 8.4 °F 1010.0 in ESE 18.5 mph 18.5 mph 85 % 0.0 in 0.0 W/m2 CLR
04:37 10.8 °F 8.2 °F 1010.0 in ESE 14.8 mph 14.8 mph 84 % 0.0 in 0.0 W/m2 CLR
04:42 10.9 °F 8.3 °F 1010.4 in ESE 22.5 mph 22.5 mph 84 % 0.0 in 0.0 W/m2 CLR
04:47 10.9 °F 8.3 °F 1010.4 in ESE 25.9 mph 25.9 mph 84 % 0.0 in 0.0 W/m2 CLR
04:52 10.9 °F 8.3 °F 1010.0 in ESE 16.7 mph 16.7 mph 84 % 0.0 in 0.0 W/m2 CLR
04:57 10.8 °F 8.4 °F 1010.0 in ESE 27.8 mph 27.8 mph 85 % 0.0 in 0.0 W/m2 CLR
05:02 10.8 °F 8.3 °F 1010.0 in ESE 18.5 mph 18.5 mph 85 % 0.0 in 0.0 W/m2 CLR
05:07 10.7 °F 8.5 °F 1010.0 in ESE 22.2 mph 22.2 mph 86 % 0.0 in 0.0 W/m2 CLR
05:12 10.8 °F 8.6 °F 1009.7 in ESE 25.9 mph 25.9 mph 86 % 0.0 in 0.0 W/m2 CLR
05:17 10.9 °F 8.4 °F 1010.0 in ESE 20.4 mph 20.4 mph 85 % 0.0 in 0.0 W/m2 CLR
05:22 10.9 °F 8.6 °F 1010.0 in ESE 22.2 mph 22.2 mph 86 % 0.0 in 0.0 W/m2 CLR
05:27 10.8 °F 8.6 °F 1010.0 in ESE 18.5 mph 18.5 mph 86 % 0.0 in 0.0 W/m2 CLR
05:32 10.8 °F 8.6 °F 1010.0 in ESE 18.5 mph 18.5 mph 86 % 0.0 in 0.0 W/m2 CLR
05:37 10.9 °F 8.4 °F 1010.0 in ESE 18.5 mph 18.5 mph 85 % 0.0 in 0.0 W/m2 CLR
05:42 10.8 °F 8.4 °F 1010.0 in ESE 18.5 mph 18.5 mph 85 % 0.0 in 0.0 W/m2 CLR
05:47 10.9 °F 8.4 °F 1010.0 in ESE 14.8 mph 14.8 mph 85 % 0.0 in 0.0 W/m2 CLR
05:52 10.9 °F 8.5 °F 1009.7 in ESE 18.5 mph 18.5 mph 85 % 0.0 in 0.0 W/m2 CLR
05:57 11.0 °F 8.6 °F 1009.7 in ESE 13.0 mph 13.0 mph 85 % 0.0 in 0.0 W/m2 CLR
06:02 10.9 °F 8.5 °F 1009.7 in ESE 8.0 mph 9.7 mph 85 % 0.0 in 0.0 W/m2 CLR
06:07 10.9 °F 8.5 °F 1009.7 in ESE 11.1 mph 11.1 mph 85 % 0.0 in 0.0 W/m2 CLR
06:12 10.9 °F 8.5 °F 1010.0 in ESE 13.0 mph 13.0 mph 85 % 0.0 in 0.0 W/m2 CLR
06:17 10.9 °F 8.5 °F 1009.7 in ESE 20.4 mph 20.4 mph 85 % 0.0 in 0.0 W/m2 CLR
06:22 10.9 °F 8.5 °F 1009.7 in ESE 24.1 mph 24.1 mph 85 % 0.0 in 0.0 W/m2 CLR
06:27 11.0 °F 8.6 °F 1009.7 in ESE 18.5 mph 18.5 mph 85 % 0.0 in 0.0 W/m2 CLR
06:32 10.9 °F 8.5 °F 1009.7 in ESE 18.5 mph 18.5 mph 85 % 0.0 in 0.0 W/m2 CLR
06:37 10.9 °F 8.4 °F 1009.7 in ESE 13.0 mph 13.0 mph 85 % 0.0 in 0.0 W/m2 CLR
06:42 10.9 °F 8.5 °F 1010.0 in ESE 14.8 mph 14.8 mph 85 % 0.0 in 0.0 W/m2 CLR
06:47 10.9 °F 8.3 °F 1010.0 in SE 14.8 mph 14.8 mph 84 % 0.0 in 0.0 W/m2 CLR
06:52 11.1 °F 8.4 °F 1010.4 in ESE 14.8 mph 14.8 mph 84 % 0.0 in 0.0 W/m2 CLR
06:58 11.1 °F 8.5 °F 1010.0 in SE 14.8 mph 14.8 mph 84 % 0.0 in 0.0 W/m2 CLR
07:03 11.1 °F 8.4 °F 1010.0 in ESE 13.0 mph 13.0 mph 84 % 0.0 in 0.0 W/m2 CLR
07:08 11.0 °F 8.4 °F 1010.0 in ESE 14.8 mph 14.8 mph 84 % 0.0 in 0.0 W/m2 CLR
07:13 11.0 °F 8.4 °F 1010.0 in ESE 11.1 mph 11.1 mph 84 % 0.0 in 0.0 W/m2 CLR
07:18 11.0 °F 8.4 °F 1010.0 in ESE 16.7 mph 16.7 mph 84 % 0.0 in 0.0 W/m2 CLR
07:23 11.1 °F 8.3 °F 1010.0 in ESE 11.1 mph 11.1 mph 83 % 0.0 in 0.0 W/m2 CLR
07:28 11.1 °F 8.3 °F 1009.7 in ESE 9.3 mph 9.3 mph 83 % 0.0 in 0.0 W/m2 CLR
07:33 11.1 °F 8.3 °F 1009.7 in ESE 14.8 mph 14.8 mph 83 % 0.0 in 0.0 W/m2 CLR
07:38 11.1 °F 8.3 °F 1010.0 in ESE 16.7 mph 16.7 mph 83 % 0.0 in 0.0 W/m2 CLR
07:43 11.1 °F 8.3 °F 1010.0 in ESE 13.0 mph 13.0 mph 83 % 0.0 in 0.0 W/m2 CLR
07:48 11.2 °F 8.4 °F 1010.0 in ESE 18.5 mph 18.5 mph 83 % 0.0 in 0.0 W/m2 OVC
07:53 11.2 °F 8.4 °F 1010.0 in ESE 14.5 mph 14.5 mph 83 % 0.0 in 0.0 W/m2 OVC
07:58 11.2 °F 8.4 °F 1010.0 in ESE 18.5 mph 18.5 mph 83 % 0.0 in 0.0 W/m2 OVC
08:03 11.2 °F 8.4 °F 1010.0 in ESE 22.2 mph 22.2 mph 83 % 0.0 in 0.0 W/m2 OVC
08:08 11.2 °F 8.3 °F 1010.0 in ESE 18.5 mph 18.5 mph 82 % 0.0 in 5.0 W/m2 OVC
08:13 11.3 °F 8.3 °F 1010.0 in ESE 27.8 mph 27.8 mph 82 % 0.0 in 9.0 W/m2 BKN
08:18 11.3 °F 8.3 °F 1010.0 in ESE 24.1 mph 24.1 mph 82 % 0.0 in 16.0 W/m2 BKN
08:23 11.3 °F 8.2 °F 1010.0 in ESE 16.1 mph 16.1 mph 81 % 0.0 in 19.0 W/m2 BKN
08:28 11.3 °F 8.1 °F 1010.0 in ESE 16.7 mph 16.7 mph 81 % 0.0 in 23.0 W/m2 BKN
08:33 11.3 °F 8.1 °F 1010.0 in ESE 24.1 mph 24.1 mph 81 % 0.0 in 26.0 W/m2 BKN
08:38 11.3 °F 8.1 °F 1010.0 in ESE 18.5 mph 18.5 mph 81 % 0.0 in 32.0 W/m2 BKN
08:43 11.2 °F 8.1 °F 1010.0 in ESE 22.2 mph 22.2 mph 81 % 0.0 in 42.0 W/m2 BKN
08:48 11.2 °F 8.1 °F 1010.0 in ESE 20.4 mph 20.4 mph 81 % 0.0 in 49.0 W/m2 SCT
08:53 11.2 °F 8.2 °F 1010.0 in ESE 18.5 mph 18.5 mph 82 % 0.0 in 58.0 W/m2 SCT
08:58 11.3 °F 8.2 °F 1010.0 in ESE 22.2 mph 22.2 mph 81 % 0.0 in 67.0 W/m2 SCT
09:03 11.3 °F 8.2 °F 1010.0 in ESE 18.5 mph 18.5 mph 81 % 0.0 in 72.0 W/m2 SCT
09:08 11.3 °F 8.2 °F 1010.4 in ESE 16.7 mph 16.7 mph 81 % 0.0 in 74.0 W/m2 FEW
09:13 11.3 °F 8.4 °F 1010.4 in ESE 18.5 mph 18.5 mph 82 % 0.0 in 81.0 W/m2 FEW
09:18 11.4 °F 8.3 °F 1010.4 in ESE 13.0 mph 13.0 mph 81 % 0.0 in 88.0 W/m2 FEW
09:23 11.5 °F 8.3 °F 1010.7 in ESE 19.3 mph 19.3 mph 81 % 0.0 in 86.0 W/m2 FEW
09:28 11.6 °F 8.2 °F 1010.7 in ESE 14.8 mph 14.8 mph 80 % 0.0 in 100.0 W/m2 CLR
09:33 11.6 °F 8.3 °F 1010.4 in ESE 16.7 mph 16.7 mph 80 % 0.0 in 114.0 W/m2 CLR
09:38 11.7 °F 8.3 °F 1010.4 in ESE 16.7 mph 16.7 mph 80 % 0.0 in 130.0 W/m2 CLR
09:43 11.8 °F 8.3 °F 1010.4 in ESE 24.1 mph 24.1 mph 79 % 0.0 in 146.0 W/m2 CLR
09:48 11.8 °F 8.3 °F 1010.4 in ESE 16.7 mph 16.7 mph 79 % 0.0 in 155.0 W/m2 CLR
09:53 11.9 °F 8.2 °F 1010.4 in ESE 20.4 mph 20.4 mph 78 % 0.0 in 149.0 W/m2 CLR
09:58 11.9 °F 8.2 °F 1010.4 in ESE 18.5 mph 18.5 mph 78 % 0.0 in 139.0 W/m2 CLR
10:03 12.0 °F 8.3 °F 1010.4 in ESE 24.1 mph 24.1 mph 78 % 0.0 in 160.0 W/m2 CLR
10:08 12.1 °F 8.3 °F 1010.4 in ESE 24.1 mph 24.1 mph 78 % 0.0 in 160.0 W/m2 CLR
10:13 12.2 °F 8.3 °F 1010.4 in ESE 24.1 mph 24.1 mph 77 % 0.0 in 162.0 W/m2 CLR
10:18 12.2 °F 8.3 °F 1010.4 in ESE 22.2 mph 22.2 mph 77 % 0.0 in 178.0 W/m2 CLR
10:23 12.2 °F 8.3 °F 1010.4 in ESE 22.5 mph 22.5 mph 77 % 0.0 in 199.0 W/m2 CLR
10:28 12.3 °F 8.2 °F 1010.0 in ESE 31.5 mph 31.5 mph 76 % 0.0 in 202.0 W/m2 CLR
10:33 12.4 °F 8.3 °F 1010.4 in ESE 29.6 mph 29.6 mph 76 % 0.0 in 195.0 W/m2 CLR
10:38 12.4 °F 8.3 °F 1010.4 in ESE 16.7 mph 16.7 mph 76 % 0.0 in 176.0 W/m2 CLR
10:43 12.5 °F 8.2 °F 1010.4 in ESE 24.1 mph 24.1 mph 75 % 0.0 in 160.0 W/m2 CLR
10:48 12.6 °F 8.1 °F 1010.4 in ESE 31.5 mph 31.5 mph 74 % 0.0 in 160.0 W/m2 CLR
10:53 12.6 °F 8.5 °F 1010.4 in ESE 20.9 mph 20.9 mph 76 % 0.0 in 130.0 W/m2 CLR
10:58 12.6 °F 8.3 °F 1010.4 in SE 11.1 mph 11.1 mph 75 % 0.0 in 197.0 W/m2 CLR
11:03 12.7 °F 8.2 °F 1010.4 in SE 24.1 mph 24.1 mph 74 % 0.0 in 257.0 W/m2 CLR
11:08 12.8 °F 8.1 °F 1010.4 in SE 24.1 mph 24.1 mph 73 % 0.0 in 341.0 W/m2 CLR
11:13 13.0 °F 7.9 °F 1010.7 in ESE 27.8 mph 27.8 mph 71 % 0.0 in 318.0 W/m2 CLR
11:18 13.0 °F 8.1 °F 1010.7 in SE 25.9 mph 25.9 mph 72 % 0.0 in 313.0 W/m2 CLR
11:23 13.0 °F 8.1 °F 1010.7 in SE 22.2 mph 22.2 mph 72 % 0.0 in 216.0 W/m2 CLR
11:28 13.0 °F 8.1 °F 1010.7 in ESE 24.1 mph 24.1 mph 72 % 0.0 in 239.0 W/m2 CLR
11:33 13.0 °F 8.3 °F 1010.7 in SE 16.7 mph 16.7 mph 73 % 0.0 in 237.0 W/m2 CLR
11:38 13.0 °F 8.3 °F 1011.1 in SE 24.1 mph 24.1 mph 73 % 0.0 in 253.0 W/m2 CLR
11:43 13.1 °F 8.4 °F 1011.1 in SE 19.3 mph 19.3 mph 73 % 0.0 in 243.0 W/m2 CLR
11:48 13.2 °F 8.3 °F 1010.7 in ESE 25.9 mph 25.9 mph 72 % 0.0 in 573.0 W/m2 CLR
11:53 13.3 °F 8.3 °F 1010.7 in ESE 25.9 mph 25.9 mph 72 % 0.0 in 448.0 W/m2 CLR
11:58 13.3 °F 8.4 °F 1010.4 in ESE 24.1 mph 24.1 mph 72 % 0.0 in 362.0 W/m2 CLR
12:03 13.3 °F 8.2 °F 1010.4 in ESE 29.6 mph 29.6 mph 71 % 0.0 in 420.0 W/m2 CLR
12:08 13.4 °F 8.4 °F 1010.4 in ESE 20.4 mph 20.4 mph 72 % 0.0 in 406.0 W/m2 CLR
12:13 13.5 °F 8.3 °F 1010.4 in ESE 24.1 mph 24.1 mph 71 % 0.0 in 396.0 W/m2 CLR
12:18 13.5 °F 8.3 °F 1010.4 in ESE 20.4 mph 20.4 mph 71 % 0.0 in 415.0 W/m2 CLR
12:23 13.5 °F 8.1 °F 1010.4 in ESE 18.5 mph 18.5 mph 70 % 0.0 in 424.0 W/m2 CLR
12:28 13.6 °F 8.2 °F 1010.4 in ESE 24.1 mph 24.1 mph 70 % 0.0 in 432.0 W/m2 CLR
12:33 13.7 °F 8.5 °F 1010.4 in SE 20.9 mph 20.9 mph 71 % 0.0 in 441.0 W/m2 CLR
12:39 13.7 °F 8.1 °F 1010.4 in SE 37.0 mph 37.0 mph 69 % 0.0 in 499.0 W/m2 CLR
12:44 13.7 °F 8.3 °F 1010.4 in SE 22.5 mph 22.5 mph 70 % 0.0 in 406.0 W/m2 CLR
12:49 13.7 °F 8.1 °F 1010.0 in SE 24.1 mph 24.1 mph 69 % 0.0 in 515.0 W/m2 CLR
12:54 13.8 °F 8.0 °F 1010.4 in SE 29.6 mph 29.6 mph 68 % 0.0 in 575.0 W/m2 CLR
12:59 13.8 °F 7.8 °F 1010.4 in SE 35.2 mph 35.2 mph 67 % 0.0 in 295.0 W/m2 CLR
13:04 13.7 °F 7.9 °F 1010.0 in SE 29.6 mph 29.6 mph 68 % 0.0 in 369.0 W/m2 CLR
13:09 13.8 °F 8.2 °F 1010.4 in SE 35.2 mph 35.2 mph 69 % 0.0 in 443.0 W/m2 CLR
13:14 13.8 °F 8.0 °F 1010.4 in SE 20.4 mph 20.4 mph 68 % 0.0 in 471.0 W/m2 CLR
13:19 13.8 °F 8.0 °F 1010.4 in SE 31.5 mph 31.5 mph 68 % 0.0 in 436.0 W/m2 CLR
13:24 13.8 °F 8.0 °F 1010.0 in SE 27.8 mph 27.8 mph 68 % 0.0 in 329.0 W/m2 CLR
13:29 13.9 °F 7.8 °F 1010.0 in ESE 33.3 mph 33.3 mph 67 % 0.0 in 334.0 W/m2 CLR
13:34 13.8 °F 8.2 °F 1010.0 in ESE 22.2 mph 22.2 mph 69 % 0.0 in 413.0 W/m2 CLR
13:39 13.9 °F 7.6 °F 1010.0 in SE 42.6 mph 42.6 mph 66 % 0.0 in 366.0 W/m2 CLR
13:44 13.7 °F 7.7 °F 1009.7 in SE 29.6 mph 29.6 mph 67 % 0.0 in 301.0 W/m2 CLR
13:49 13.7 °F 8.1 °F 1009.7 in SE 22.2 mph 22.2 mph 69 % 0.0 in 281.0 W/m2 CLR
13:54 13.6 °F 8.0 °F 1009.7 in ESE 25.9 mph 25.9 mph 69 % 0.0 in 265.0 W/m2 CLR
13:59 13.6 °F 8.0 °F 1009.7 in SE 25.9 mph 25.9 mph 69 % 0.0 in 406.0 W/m2 CLR
14:04 13.6 °F 8.0 °F 1009.4 in SE 31.5 mph 31.5 mph 69 % 0.0 in 497.0 W/m2 CLR
14:09 13.7 °F 8.1 °F 1009.4 in ESE 33.3 mph 33.3 mph 69 % 0.0 in 517.0 W/m2 CLR
14:14 13.8 °F 8.2 °F 1009.4 in ESE 35.2 mph 35.2 mph 69 % 0.0 in 543.0 W/m2 CLR
14:19 14.1 °F 8.2 °F 1009.0 in ESE 25.9 mph 25.9 mph 68 % 0.0 in 582.0 W/m2 CLR
14:24 14.1 °F 8.4 °F 1009.0 in ESE 31.5 mph 31.5 mph 69 % 0.0 in 654.0 W/m2 CLR
14:29 14.2 °F 8.4 °F 1009.0 in SE 27.8 mph 27.8 mph 68 % 0.0 in 619.0 W/m2 CLR
14:34 14.2 °F 8.2 °F 1008.7 in ESE 27.8 mph 27.8 mph 67 % 0.0 in 441.0 W/m2 CLR
14:39 14.2 °F 8.3 °F 1009.0 in ESE 33.3 mph 33.3 mph 68 % 0.0 in 380.0 W/m2 CLR
14:44 14.2 °F 8.3 °F 1009.0 in ESE 31.5 mph 31.5 mph 68 % 0.0 in 473.0 W/m2 CLR
14:49 14.3 °F 8.4 °F 1009.0 in ESE 29.0 mph 29.0 mph 68 % 0.0 in 615.0 W/m2 CLR
14:54 14.2 °F 8.2 °F 1009.0 in SE 18.5 mph 18.5 mph 67 % 0.0 in 461.0 W/m2 CLR
14:59 14.3 °F 8.3 °F 1009.0 in SE 27.8 mph 27.8 mph 67 % 0.0 in 492.0 W/m2 CLR
15:04 14.3 °F 8.3 °F 1009.0 in SE 25.7 mph 25.7 mph 67 % 0.0 in 450.0 W/m2 CLR
15:09 14.2 °F 8.2 °F 1009.0 in SE 31.5 mph 31.5 mph 67 % 0.0 in 452.0 W/m2 CLR
15:14 14.2 °F 7.7 °F 1009.0 in ESE 24.1 mph 24.1 mph 65 % 0.0 in 536.0 W/m2 CLR
15:19 14.1 °F 7.8 °F 1008.7 in ESE 33.3 mph 33.3 mph 66 % 0.0 in 490.0 W/m2 CLR
15:24 14.3 °F 8.0 °F 1008.7 in ESE 29.6 mph 29.6 mph 66 % 0.0 in 585.0 W/m2 CLR
15:29 14.3 °F 8.2 °F 1008.7 in SE 18.5 mph 18.5 mph 67 % 0.0 in 455.0 W/m2 CLR
15:34 14.3 °F 8.2 °F 1008.7 in ESE 22.2 mph 22.2 mph 67 % 0.0 in 292.0 W/m2 CLR
15:39 14.0 °F 7.5 °F 1009.0 in ESE 40.2 mph 40.2 mph 65 % 0.0 in 260.0 W/m2 CLR
15:44 13.7 °F 7.7 °F 1008.7 in ESE 20.9 mph 20.9 mph 67 % 0.0 in 193.0 W/m2 CLR
15:49 13.6 °F 7.8 °F 1008.7 in ESE 25.9 mph 25.9 mph 68 % 0.0 in 213.0 W/m2 CLR
15:54 13.4 °F 7.9 °F 1008.7 in ESE 33.3 mph 33.3 mph 69 % 0.0 in 167.0 W/m2 CLR
15:59 13.3 °F 8.0 °F 1008.7 in ESE 25.7 mph 25.7 mph 70 % 0.0 in 174.0 W/m2 CLR
16:04 13.2 °F 7.9 °F 1008.7 in East 27.8 mph 27.8 mph 70 % 0.0 in 192.0 W/m2 CLR
16:09 13.2 °F 7.9 °F 1008.7 in ESE 29.6 mph 29.6 mph 70 % 0.0 in 209.0 W/m2 CLR
16:14 13.2 °F 7.9 °F 1008.4 in ESE 33.3 mph 33.3 mph 70 % 0.0 in 239.0 W/m2 CLR
16:19 13.2 °F 8.1 °F 1008.4 in ESE 31.5 mph 31.5 mph 71 % 0.0 in 262.0 W/m2 CLR
16:24 13.3 °F 8.0 °F 1008.4 in ESE 33.3 mph 33.3 mph 70 % 0.0 in 287.0 W/m2 CLR
16:29 13.3 °F 7.9 °F 1008.4 in ESE 31.5 mph 31.5 mph 70 % 0.0 in 274.0 W/m2 CLR
16:34 13.4 °F 8.0 °F 1008.4 in ESE 27.8 mph 27.8 mph 70 % 0.0 in 258.0 W/m2 CLR
16:39 13.2 °F 7.9 °F 1008.4 in ESE 33.3 mph 33.3 mph 70 % 0.0 in 158.0 W/m2 CLR
16:44 13.2 °F 7.8 °F 1008.4 in ESE 37.0 mph 37.0 mph 70 % 0.0 in 169.0 W/m2 CLR
16:49 13.1 °F 7.9 °F 1008.0 in SE 32.2 mph 32.2 mph 71 % 0.0 in 114.0 W/m2 CLR
16:54 13.0 °F 7.9 °F 1008.4 in ESE 35.2 mph 35.2 mph 71 % 0.0 in 123.0 W/m2 CLR
16:59 12.9 °F 7.8 °F 1008.4 in ESE 24.1 mph 24.1 mph 71 % 0.0 in 121.0 W/m2 CLR
17:04 12.9 °F 8.0 °F 1008.4 in SE 22.2 mph 22.2 mph 72 % 0.0 in 118.0 W/m2 CLR
17:09 12.9 °F 8.0 °F 1008.7 in SE 24.1 mph 24.1 mph 72 % 0.0 in 130.0 W/m2 CLR
17:14 13.0 °F 7.7 °F 1008.7 in SSE 31.5 mph 31.5 mph 70 % 0.0 in 86.0 W/m2 CLR
17:20 12.9 °F 7.6 °F 1009.0 in SSE 27.8 mph 27.8 mph 70 % 0.0 in 72.0 W/m2 CLR
17:25 12.9 °F 7.6 °F 1009.0 in SSE 33.3 mph 33.3 mph 70 % 0.0 in 56.0 W/m2 FEW
17:30 12.9 °F 7.8 °F 1008.7 in SE 18.5 mph 18.5 mph 71 % 0.0 in 56.0 W/m2 SCT
17:35 12.8 °F 7.9 °F 1009.0 in SE 22.2 mph 22.2 mph 72 % 0.0 in 53.0 W/m2 SCT
17:40 12.7 °F 8.0 °F 1009.0 in SE 14.8 mph 14.8 mph 73 % 0.0 in 58.0 W/m2 SCT
17:45 12.8 °F 7.8 °F 1009.0 in SE 20.9 mph 20.9 mph 72 % 0.0 in 49.0 W/m2 SCT
17:50 12.7 °F 8.0 °F 1008.7 in SE 20.4 mph 20.4 mph 73 % 0.0 in 49.0 W/m2 SCT
17:55 12.7 °F 8.0 °F 1009.0 in ESE 20.4 mph 20.4 mph 73 % 0.0 in 35.0 W/m2 BKN
18:00 12.7 °F 7.9 °F 1009.0 in SE 22.2 mph 22.2 mph 73 % 0.0 in 35.0 W/m2 BKN
18:05 12.7 °F 7.7 °F 1009.0 in SE 24.1 mph 24.1 mph 72 % 0.0 in 25.0 W/m2 BKN
18:10 12.7 °F 7.7 °F 1009.0 in SE 18.5 mph 18.5 mph 72 % 0.0 in 23.0 W/m2 BKN
18:15 12.6 °F 7.7 °F 1009.0 in ESE 27.8 mph 27.8 mph 72 % 0.0 in 14.0 W/m2 BKN
18:20 12.6 °F 7.8 °F 1009.0 in ESE 31.5 mph 31.5 mph 73 % 0.0 in 12.0 W/m2 BKN
18:25 12.5 °F 8.0 °F 1009.0 in ESE 20.4 mph 20.4 mph 74 % 0.0 in 9.0 W/m2 BKN
18:30 12.4 °F 7.9 °F 1009.0 in ESE 22.5 mph 22.5 mph 74 % 0.0 in 0.0 W/m2 OVC
18:35 12.4 °F 7.9 °F 1009.0 in ESE 35.2 mph 35.2 mph 74 % 0.0 in 0.0 W/m2 OVC
18:40 12.4 °F 7.9 °F 1009.0 in ESE 20.4 mph 20.4 mph 74 % 0.0 in 0.0 W/m2 OVC
18:45 12.3 °F 7.8 °F 1009.0 in ESE 29.6 mph 29.6 mph 74 % 0.0 in 0.0 W/m2 CLR
18:50 12.4 °F 7.9 °F 1009.0 in ESE 37.0 mph 37.0 mph 74 % 0.0 in 0.0 W/m2 CLR
18:55 12.4 °F 7.9 °F 1009.0 in SE 35.2 mph 35.2 mph 74 % 0.0 in 0.0 W/m2 CLR
19:00 12.3 °F 8.0 °F 1009.0 in SE 29.6 mph 29.6 mph 75 % 0.0 in 0.0 W/m2 CLR
19:05 12.3 °F 7.9 °F 1009.4 in SE 31.5 mph 31.5 mph 75 % 0.0 in 0.0 W/m2 CLR
19:10 12.3 °F 7.9 °F 1009.4 in SE 25.9 mph 25.9 mph 75 % 0.0 in 0.0 W/m2 CLR
19:15 12.2 °F 7.9 °F 1009.4 in SE 27.8 mph 27.8 mph 75 % 0.0 in 0.0 W/m2 CLR
19:20 12.3 °F 7.9 °F 1009.7 in SE 29.6 mph 29.6 mph 75 % 0.0 in 0.0 W/m2 CLR
19:25 12.2 °F 7.9 °F 1009.7 in SE 27.4 mph 27.4 mph 75 % 0.0 in 0.0 W/m2 CLR
19:30 12.3 °F 7.8 °F 1009.7 in SE 29.6 mph 29.6 mph 74 % 0.0 in 0.0 W/m2 CLR
19:35 12.3 °F 7.8 °F 1009.4 in SE 27.8 mph 27.8 mph 74 % 0.0 in 0.0 W/m2 CLR
19:40 12.3 °F 7.8 °F 1009.7 in SE 31.5 mph 31.5 mph 74 % 0.0 in 0.0 W/m2 CLR
19:45 12.2 °F 7.9 °F 1009.7 in SE 29.6 mph 29.6 mph 75 % 0.0 in 0.0 W/m2 CLR
19:50 12.2 °F 7.9 °F 1009.7 in SE 30.6 mph 30.6 mph 75 % 0.0 in 0.0 W/m2 CLR
19:55 12.2 °F 7.9 °F 1009.7 in SE 40.7 mph 40.7 mph 75 % 0.0 in 0.0 W/m2 CLR
20:00 12.3 °F 7.9 °F 1010.0 in SE 31.5 mph 31.5 mph 75 % 0.0 in 0.0 W/m2 CLR
20:05 12.3 °F 7.9 °F 1010.0 in SE 31.5 mph 31.5 mph 75 % 0.0 in 0.0 W/m2 CLR
20:10 12.2 °F 7.9 °F 1010.0 in SE 24.1 mph 24.1 mph 75 % 0.0 in 0.0 W/m2 CLR
20:15 12.2 °F 7.9 °F 1010.0 in SE 20.4 mph 20.4 mph 75 % 0.0 in 0.0 W/m2 CLR
20:20 12.3 °F 7.9 °F 1010.0 in SE 27.8 mph 27.8 mph 75 % 0.0 in 0.0 W/m2 CLR
20:25 12.4 °F 7.9 °F 1010.4 in SE 29.6 mph 29.6 mph 74 % 0.0 in 0.0 W/m2 CLR
20:30 12.4 °F 8.1 °F 1010.4 in SE 22.5 mph 22.5 mph 75 % 0.0 in 0.0 W/m2 CLR
20:35 12.3 °F 8.0 °F 1010.0 in ESE 22.2 mph 22.2 mph 75 % 0.0 in 0.0 W/m2 CLR
20:40 12.3 °F 7.9 °F 1010.0 in ESE 24.1 mph 24.1 mph 75 % 0.0 in 0.0 W/m2 CLR
20:45 12.2 °F 7.9 °F 1010.0 in SE 22.2 mph 22.2 mph 75 % 0.0 in 0.0 W/m2 CLR
20:50 12.2 °F 8.1 °F 1010.0 in SE 20.4 mph 20.4 mph 76 % 0.0 in 0.0 W/m2 CLR
20:55 12.2 °F 8.3 °F 1010.0 in ESE 22.2 mph 22.2 mph 77 % 0.0 in 0.0 W/m2 CLR
21:00 12.1 °F 8.2 °F 1010.0 in ESE 18.5 mph 18.5 mph 77 % 0.0 in 0.0 W/m2 CLR
21:05 12.0 °F 8.3 °F 1010.0 in ESE 16.7 mph 16.7 mph 78 % 0.0 in 0.0 W/m2 CLR
21:15 11.9 °F 8.4 °F 1010.0 in East 16.7 mph 16.7 mph 79 % 0.0 in 0.0 W/m2 CLR
21:20 12.0 °F 8.4 °F 1010.0 in East 18.5 mph 18.5 mph 79 % 0.0 in 0.0 W/m2 CLR
21:25 12.0 °F 8.4 °F 1010.0 in ESE 20.4 mph 20.4 mph 79 % 0.0 in 0.0 W/m2 CLR
21:30 12.0 °F 8.4 °F 1010.0 in ESE 14.8 mph 14.8 mph 79 % 0.0 in 0.0 W/m2 CLR
21:35 12.0 °F 8.4 °F 1009.7 in ESE 14.8 mph 14.8 mph 79 % 0.0 in 0.0 W/m2 CLR
21:40 11.9 °F 8.4 °F 1009.7 in East 9.3 mph 9.3 mph 79 % 0.0 in 0.0 W/m2 CLR
21:45 11.8 °F 8.3 °F 1009.7 in ESE 11.1 mph 11.1 mph 79 % 0.0 in 0.0 W/m2 CLR
21:50 11.8 °F 8.3 °F 1009.7 in ESE 14.8 mph 14.8 mph 79 % 0.0 in 0.0 W/m2 CLR
21:55 11.9 °F 8.3 °F 1010.0 in East 11.1 mph 11.1 mph 79 % 0.0 in 0.0 W/m2 CLR
22:00 11.9 °F 8.2 °F 1010.0 in SE 9.3 mph 9.3 mph 78 % 0.0 in 0.0 W/m2 CLR
22:05 11.9 °F 8.2 °F 1010.0 in ESE 8.0 mph 8.0 mph 78 % 0.0 in 0.0 W/m2 CLR
22:10 12.0 °F 8.1 °F 1010.0 in SE 9.3 mph 9.3 mph 77 % 0.0 in 0.0 W/m2 CLR
22:15 12.0 °F 7.9 °F 1010.0 in SE 14.8 mph 14.8 mph 76 % 0.0 in 0.0 W/m2 CLR
22:20 12.1 °F 7.8 °F 1010.0 in SE 14.8 mph 14.8 mph 75 % 0.0 in 0.0 W/m2 CLR
22:25 12.2 °F 7.7 °F 1010.0 in SE 20.4 mph 20.4 mph 74 % 0.0 in 0.0 W/m2 CLR
22:30 12.3 °F 7.6 °F 1010.0 in SE 13.0 mph 13.0 mph 73 % 0.0 in 0.0 W/m2 CLR
22:35 12.2 °F 7.5 °F 1010.0 in SE 16.1 mph 16.1 mph 73 % 0.0 in 0.0 W/m2 CLR
22:40 12.3 °F 7.6 °F 1010.4 in SSE 18.5 mph 18.5 mph 73 % 0.0 in 0.0 W/m2 CLR
22:45 12.3 °F 7.6 °F 1010.0 in SSE 20.4 mph 20.4 mph 73 % 0.0 in 0.0 W/m2 CLR
22:50 12.3 °F 7.4 °F 1010.0 in SSE 31.5 mph 31.5 mph 72 % 0.0 in 0.0 W/m2 CLR
22:55 12.4 °F 7.5 °F 1010.0 in SSE 20.4 mph 20.4 mph 72 % 0.0 in 0.0 W/m2 CLR
23:00 12.4 °F 7.5 °F 1010.0 in SE 16.7 mph 16.7 mph 72 % 0.0 in 0.0 W/m2 CLR
23:05 12.3 °F 7.6 °F 1010.0 in SE 13.0 mph 13.0 mph 73 % 0.0 in 0.0 W/m2 CLR
23:10 12.1 °F 7.4 °F 1010.0 in SE 9.7 mph 9.7 mph 73 % 0.0 in 0.0 W/m2 CLR
23:15 12.0 °F 7.5 °F 1010.0 in ESE 8.0 mph 8.0 mph 74 % 0.0 in 0.0 W/m2 CLR
23:20 11.9 °F 7.4 °F 1010.0 in ESE 11.1 mph 11.1 mph 74 % 0.0 in 0.0 W/m2 CLR
23:25 12.0 °F 7.5 °F 1009.7 in ESE 13.0 mph 13.0 mph 74 % 0.0 in 0.0 W/m2 CLR
23:30 12.0 °F 7.7 °F 1009.7 in ESE 24.1 mph 24.1 mph 75 % 0.0 in 0.0 W/m2 CLR
23:35 12.0 °F 7.7 °F 1010.0 in SE 20.4 mph 20.4 mph 75 % 0.0 in 0.0 W/m2 CLR
23:40 12.1 °F 7.9 °F 1010.0 in ESE 20.9 mph 20.9 mph 76 % 0.0 in 0.0 W/m2 CLR
23:45 12.1 °F 7.9 °F 1010.0 in SE 20.4 mph 20.4 mph 76 % 0.0 in 0.0 W/m2 CLR
23:50 12.1 °F 7.9 °F 1010.0 in SE 18.5 mph 18.5 mph 76 % 0.0 in 0.0 W/m2 CLR
23:55 11.9 °F 8.1 °F 1010.0 in SE 22.2 mph 22.2 mph 77 % 0.0 in 0.0 W/m2 CLR
Lo Temps de Massalio
Compliments of Weather Underground - 1.25 mb